Time;durP1;ratioP1;P1;durP2;ratioP2;P2;SDS_P1;SDS_P2;PMS_P1;PMS_P2;Temp;Humidity;BMP_temperature;BMP_pressure;BME280_temperature;BME280_humidity;BME280_pressure;Samples;Min_cycle;Max_cycle;Signal;HPM_P1;HPM_P2
2022/08/18 00:01:44;;;;;;;27.40;5.88;;;18.50;99.90;;;;;;5081956;28;20503;-75
2022/08/18 00:04:10;;;;;;;21.25;5.75;;;18.60;99.90;;;;;;5068890;28;21195;-74
2022/08/18 00:06:37;;;;;;;20.58;5.40;;;18.50;99.90;;;;;;5087758;28;20787;-75
2022/08/18 00:09:06;;;;;;;20.85;5.80;;;18.50;99.90;;;;;;5063321;28;20126;-75
2022/08/18 00:11:35;;;;;;;23.38;6.00;;;18.50;99.90;;;;;;5066922;28;20589;-75
2022/08/18 00:14:01;;;;;;;20.00;5.68;;;18.50;99.90;;;;;;5076255;28;20360;-75
2022/08/18 00:16:27;;;;;;;27.70;6.43;;;18.50;99.90;;;;;;5065516;28;20063;-75
2022/08/18 00:18:52;;;;;;;18.02;6.07;;;18.50;99.90;;;;;;5067586;28;20039;-75
2022/08/18 00:21:18;;;;;;;20.95;5.90;;;18.50;99.90;;;;;;5069959;28;20150;-75
2022/08/18 00:23:44;;;;;;;23.55;5.85;;;18.50;99.90;;;;;;5062643;28;20054;-74
2022/08/18 00:26:09;;;;;;;18.65;5.70;;;18.40;99.90;;;;;;5082155;28;20038;-74
2022/08/18 00:28:35;;;;;;;22.15;6.50;;;18.40;99.90;;;;;;5060662;28;20359;-75
2022/08/18 00:31:01;;;;;;;26.13;6.20;;;18.50;99.90;;;;;;5067069;27;20353;-75
2022/08/18 00:33:27;;;;;;;18.63;5.18;;;18.40;99.90;;;;;;5096096;28;20051;-75
2022/08/18 00:35:52;;;;;;;21.55;5.72;;;18.40;99.90;;;;;;5064975;28;20031;-75
2022/08/18 00:38:18;;;;;;;25.30;6.18;;;18.40;99.90;;;;;;5068943;28;20036;-75
2022/08/18 00:40:50;;;;;;;19.77;5.85;;;18.30;99.90;;;;;;5066765;28;20458;-75
2022/08/18 00:43:38;;;;;;;28.98;6.40;;;18.40;99.90;;;;;;5067440;28;20080;-75
2022/08/18 00:46:07;;;;;;;17.20;5.93;;;18.30;99.90;;;;;;5083240;28;20221;-75
2022/08/18 00:48:33;;;;;;;25.58;6.55;;;18.30;99.90;;;;;;5064602;28;20032;-75
2022/08/18 00:51:05;;;;;;;23.83;6.25;;;18.30;99.90;;;;;;5078965;28;20096;-75
2022/08/18 00:53:46;;;;;;;21.48;6.00;;;18.30;99.90;;;;;;5067638;28;20039;-74
2022/08/18 00:56:17;;;;;;;21.90;6.72;;;18.30;99.90;;;;;;5059919;28;20362;-75
2022/08/18 00:58:51;;;;;;;24.25;6.47;;;18.30;99.90;;;;;;5076744;28;20099;-74
2022/08/18 01:01:22;;;;;;;24.13;6.38;;;18.30;99.90;;;;;;5079467;28;20517;-74
2022/08/18 01:03:53;;;;;;;28.95;6.45;;;18.30;99.90;;;;;;5080572;28;20607;-73
2022/08/18 01:06:27;;;;;;;28.80;7.40;;;18.30;99.90;;;;;;5080497;28;20036;-74
2022/08/18 01:08:54;;;;;;;24.52;6.57;;;18.40;99.90;;;;;;5059441;28;20124;-74
2022/08/18 01:11:20;;;;;;;30.75;7.07;;;18.30;99.90;;;;;;5082820;28;20044;-74
2022/08/18 01:13:46;;;;;;;28.25;7.18;;;18.40;99.90;;;;;;5087003;28;20043;-74
2022/08/18 01:21:52;;;;;;;27.67;6.88;;;18.40;99.90;;;;;;5083683;28;20351;-74
2022/08/18 01:25:58;;;;;;;33.00;7.22;;;18.40;99.90;;;;;;5082904;28;20094;-75
2022/08/18 01:27:16;;;;;;;21.08;6.72;;;18.40;99.90;;;;;;5086389;28;20039;-75
2022/08/18 01:29:44;;;;;;;28.35;7.35;;;18.40;99.90;;;;;;5067807;28;20047;-75
2022/08/18 01:32:11;;;;;;;21.60;6.47;;;18.50;99.90;;;;;;5065787;28;20135;-75
2022/08/18 01:34:37;;;;;;;24.80;6.53;;;18.50;99.90;;;;;;5085097;28;20040;-75
2022/08/18 01:37:04;;;;;;;26.95;7.40;;;18.40;99.90;;;;;;5059689;28;20039;-75
2022/08/18 01:39:30;;;;;;;24.25;7.22;;;18.40;99.90;;;;;;5064486;28;20175;-75
2022/08/18 01:42:00;;;;;;;26.42;6.78;;;18.50;99.90;;;;;;5081252;28;20039;-75
2022/08/18 01:44:25;;;;;;;30.40;7.50;;;18.50;99.90;;;;;;5068055;28;20043;-75
2022/08/18 01:46:52;;;;;;;25.85;6.47;;;18.50;99.90;;;;;;5083691;28;20420;-75
2022/08/18 01:49:18;;;;;;;25.13;7.50;;;18.50;99.90;;;;;;5059644;28;20105;-75
2022/08/18 01:51:45;;;;;;;30.27;7.60;;;18.50;99.90;;;;;;5066445;28;20051;-75
2022/08/18 01:54:13;;;;;;;24.92;7.55;;;18.50;99.90;;;;;;5058987;28;20122;-75
2022/08/18 01:56:41;;;;;;;26.00;7.63;;;18.50;99.90;;;;;;5064859;28;20104;-75
2022/08/18 01:59:13;;;;;;;25.98;7.38;;;18.50;99.90;;;;;;5078711;28;20044;-76
2022/08/18 02:01:40;;;;;;;28.98;7.35;;;18.50;99.90;;;;;;5058971;28;20040;-75
2022/08/18 02:04:06;;;;;;;33.25;8.27;;;18.60;99.90;;;;;;5078459;28;20048;-76
2022/08/18 02:06:33;;;;;;;34.88;8.48;;;18.50;99.90;;;;;;5064143;28;20051;-76
2022/08/18 02:08:58;;;;;;;31.77;7.93;;;18.60;99.90;;;;;;5080027;28;20115;-76
2022/08/18 02:11:24;;;;;;;28.80;7.75;;;18.70;99.90;;;;;;5078709;28;20043;-76
2022/08/18 02:13:50;;;;;;;29.35;8.85;;;18.50;99.90;;;;;;5081731;28;20447;-76
2022/08/18 02:16:16;;;;;;;28.48;7.93;;;18.50;99.90;;;;;;5082133;27;20120;-75
2022/08/18 02:18:42;;;;;;;35.92;8.57;;;18.60;99.90;;;;;;5065361;28;20103;-74
2022/08/18 02:21:14;;;;;;;30.25;8.55;;;18.50;99.90;;;;;;5060805;28;20163;-75
2022/08/18 02:23:41;;;;;;;32.65;8.45;;;18.50;99.90;;;;;;5068221;28;20043;-74
2022/08/18 02:26:10;;;;;;;27.50;8.75;;;18.60;99.90;;;;;;5081389;28;20043;-75
2022/08/18 02:28:36;;;;;;;32.85;8.60;;;18.60;99.90;;;;;;5065185;28;20043;-75
2022/08/18 02:31:07;;;;;;;33.42;8.20;;;18.60;99.90;;;;;;5080095;28;20043;-75
2022/08/18 02:33:33;;;;;;;35.22;7.90;;;18.60;99.90;;;;;;5083284;28;20050;-75
2022/08/18 02:35:59;;;;;;;27.95;7.63;;;18.60;99.90;;;;;;5069015;28;20513;-74
2022/08/18 02:38:25;;;;;;;30.05;8.70;;;18.60;99.90;;;;;;5061030;28;20063;-74
2022/08/18 02:40:59;;;;;;;27.15;8.52;;;18.50;99.90;;;;;;5081345;28;20040;-75
2022/08/18 02:43:25;;;;;;;26.57;7.97;;;18.50;99.90;;;;;;5079012;28;20130;-75
2022/08/18 02:45:51;;;;;;;28.17;7.93;;;18.60;99.90;;;;;;5062580;28;20028;-75
2022/08/18 02:48:26;;;;;;;32.83;7.97;;;18.60;99.90;;;;;;5062040;28;20104;-75
2022/08/18 02:51:03;;;;;;;27.77;7.75;;;18.50;99.90;;;;;;5081227;28;20114;-75
2022/08/18 02:53:29;;;;;;;;;;;18.50;99.90;;;;;;5080402;28;20093;-75
2022/08/18 02:56:02;;;;;;;26.52;7.25;;;18.50;99.90;;;;;;5088355;28;19924;-75
2022/08/18 02:58:28;;;;;;;33.53;7.88;;;18.50;99.90;;;;;;5064561;28;20043;-75
2022/08/18 03:00:54;;;;;;;33.47;7.57;;;18.60;99.90;;;;;;5062410;28;20116;-76
2022/08/18 03:03:20;;;;;;;37.67;7.63;;;18.60;99.90;;;;;;5081143;28;20127;-75
2022/08/18 03:05:46;;;;;;;27.05;7.65;;;18.60;99.90;;;;;;5084265;28;20473;-75
2022/08/18 03:08:12;;;;;;;29.00;7.43;;;18.60;99.90;;;;;;5081006;28;20494;-75
2022/08/18 03:10:37;;;;;;;25.48;7.15;;;18.60;99.90;;;;;;5082870;28;20095;-75
2022/08/18 03:13:03;;;;;;;28.58;6.78;;;18.60;99.90;;;;;;5067350;28;20398;-75
2022/08/18 03:15:30;;;;;;;23.02;7.38;;;18.60;99.90;;;;;;5082255;28;20044;-75
2022/08/18 03:17:56;;;;;;;32.63;7.65;;;18.70;99.90;;;;;;5082141;28;20047;-74
2022/08/18 03:20:21;;;;;;;21.25;7.85;;;18.60;99.90;;;;;;5072825;28;20066;-74
2022/08/18 03:22:48;;;;;;;21.98;7.93;;;18.60;99.90;;;;;;5070105;28;20032;-74
2022/08/18 03:25:14;;;;;;;28.17;8.07;;;18.70;99.90;;;;;;5084962;28;20079;-74
2022/08/18 03:27:39;;;;;;;27.73;8.20;;;18.60;99.90;;;;;;5088114;28;20098;-74
2022/08/18 03:30:05;;;;;;;25.55;8.38;;;18.60;99.90;;;;;;5070372;28;20059;-74
2022/08/18 03:32:31;;;;;;;27.42;7.82;;;18.70;99.90;;;;;;5085009;28;20042;-73
2022/08/18 03:34:58;;;;;;;25.77;7.25;;;18.60;99.90;;;;;;5090125;28;20043;-75
2022/08/18 03:37:24;;;;;;;27.15;7.70;;;18.70;99.90;;;;;;5083278;28;20483;-75
2022/08/18 03:39:51;;;;;;;23.85;8.13;;;18.70;99.90;;;;;;5082403;28;20036;-75
2022/08/18 03:42:17;;;;;;;29.67;8.32;;;18.60;99.90;;;;;;5064226;28;20074;-74
2022/08/18 03:44:42;;;;;;;23.63;7.90;;;18.70;99.90;;;;;;5061018;28;20067;-75
2022/08/18 03:47:09;;;;;;;23.30;7.35;;;18.60;99.90;;;;;;5078330;28;20187;-74
2022/08/18 03:49:36;;;;;;;27.45;7.47;;;18.60;99.90;;;;;;5081983;28;20054;-74
2022/08/18 03:52:04;;;;;;;19.90;7.18;;;18.60;99.90;;;;;;5086936;28;20390;-74
2022/08/18 03:54:30;;;;;;;25.25;6.65;;;18.70;99.90;;;;;;5076506;28;20040;-75
2022/08/18 03:56:57;;;;;;;20.65;6.93;;;18.60;99.90;;;;;;5084122;28;20043;-74
2022/08/18 03:59:24;;;;;;;19.08;6.68;;;18.60;99.90;;;;;;5081240;28;20047;-75
2022/08/18 04:01:52;;;;;;;22.92;6.13;;;18.70;99.90;;;;;;5079621;28;20051;-75
2022/08/18 04:04:21;;;;;;;17.83;6.05;;;18.70;99.90;;;;;;5083200;28;20044;-75
2022/08/18 04:06:54;;;;;;;20.95;6.93;;;18.70;99.90;;;;;;5071851;28;20070;-75
2022/08/18 04:09:21;;;;;;;20.60;6.05;;;18.70;99.90;;;;;;5082753;28;20684;-75
2022/08/18 04:11:47;;;;;;;20.10;6.88;;;18.70;99.90;;;;;;5063033;28;20104;-75
2022/08/18 04:14:15;;;;;;;18.40;6.75;;;18.60;99.90;;;;;;5082292;28;20363;-75
2022/08/18 04:16:41;;;;;;;15.50;7.35;;;18.60;99.90;;;;;;5083842;28;20044;-75
2022/08/18 04:19:12;;;;;;;14.95;7.00;;;18.70;99.90;;;;;;5067865;28;20039;-75
2022/08/18 04:21:39;;;;;;;18.20;7.30;;;18.70;99.90;;;;;;5066589;28;20140;-76
2022/08/18 04:24:07;;;;;;;16.25;6.90;;;18.60;99.90;;;;;;5062516;28;20120;-75
2022/08/18 04:26:35;;;;;;;16.75;6.63;;;18.70;99.90;;;;;;5080199;28;20494;-75
2022/08/18 04:29:04;;;;;;;17.83;7.32;;;18.60;99.90;;;;;;5098234;28;20040;-76
2022/08/18 04:31:31;;;;;;;16.00;7.05;;;18.60;99.90;;;;;;5068109;28;20766;-75
2022/08/18 04:34:00;;;;;;;16.65;7.75;;;18.60;99.90;;;;;;5064322;28;20027;-75
2022/08/18 04:36:27;;;;;;;20.70;9.32;;;18.60;99.90;;;;;;5082277;28;20419;-75
2022/08/18 04:38:52;;;;;;;19.20;8.90;;;18.60;99.90;;;;;;5059363;28;20051;-75
2022/08/18 04:41:19;;;;;;;21.98;9.05;;;18.60;99.90;;;;;;5081626;28;20039;-75
2022/08/18 04:43:46;;;;;;;13.80;8.95;;;18.60;99.90;;;;;;5078938;28;20043;-75
2022/08/18 04:46:12;;;;;;;20.88;9.43;;;18.70;99.90;;;;;;5084974;28;20074;-74
2022/08/18 04:48:40;;;;;;;16.10;10.20;;;18.60;99.90;;;;;;5066789;28;20078;-74
2022/08/18 04:51:11;;;;;;;24.75;11.90;;;18.60;99.90;;;;;;5082499;28;20077;-75
2022/08/18 04:53:44;;;;;;;19.42;10.93;;;18.50;99.90;;;;;;5067263;28;20078;-74
2022/08/18 04:56:26;;;;;;;24.55;11.07;;;18.60;99.90;;;;;;5087057;28;20031;-74
2022/08/18 04:58:57;;;;;;;24.17;11.95;;;18.60;99.90;;;;;;5065269;28;20736;-75
2022/08/18 05:01:26;;;;;;;19.95;10.68;;;18.60;99.90;;;;;;5068256;28;20044;-75
2022/08/18 05:03:53;;;;;;;26.80;11.90;;;18.60;99.90;;;;;;5063811;28;20047;-75
2022/08/18 05:06:24;;;;;;;25.80;11.45;;;18.60;99.90;;;;;;5082247;28;20046;-75
2022/08/18 05:09:01;;;;;;;26.98;12.05;;;18.70;99.90;;;;;;5064525;28;20055;-74
2022/08/18 05:11:32;;;;;;;23.88;11.00;;;18.60;99.90;;;;;;5091363;28;20097;-75
2022/08/18 05:13:58;;;;;;;25.10;11.15;;;18.70;99.90;;;;;;5088280;28;20249;-75
2022/08/18 05:16:26;;;;;;;22.25;9.65;;;18.70;99.90;;;;;;5063445;28;20070;-74
2022/08/18 05:18:52;;;;;;;18.20;8.70;;;18.60;99.90;;;;;;5075751;28;20039;-75
2022/08/18 05:21:19;;;;;;;16.45;7.03;;;18.60;99.90;;;;;;5065913;28;20421;-76
2022/08/18 05:23:47;;;;;;;14.57;5.30;;;18.80;99.90;;;;;;5066465;28;20207;-75
2022/08/18 05:26:14;;;;;;;12.50;5.40;;;18.80;99.90;;;;;;5069608;28;20108;-75
2022/08/18 05:28:41;;;;;;;14.77;5.18;;;18.90;99.90;;;;;;5085580;28;20086;-75
2022/08/18 05:31:15;;;;;;;18.90;5.80;;;18.90;99.90;;;;;;5079666;28;20129;-75
2022/08/18 05:33:41;;;;;;;21.90;5.70;;;19.00;99.90;;;;;;5078703;28;20031;-77
2022/08/18 05:36:37;;;;;;;14.68;4.95;;;18.90;99.90;;;;;;5081601;28;21226;-75
2022/08/18 05:39:23;;;;;;;12.20;4.57;;;18.90;99.90;;;;;;5076148;28;20032;-75
2022/08/18 05:41:54;;;;;;;11.23;3.70;;;19.00;99.90;;;;;;5079924;28;20486;-74
2022/08/18 05:44:28;;;;;;;15.60;4.05;;;19.00;99.90;;;;;;5066789;28;20062;-75
2022/08/18 05:47:05;;;;;;;14.68;4.18;;;19.20;99.90;;;;;;5081088;28;20144;-72
2022/08/18 05:49:32;;;;;;;18.67;4.95;;;19.20;99.90;;;;;;5068346;28;20042;-76
2022/08/18 05:52:03;;;;;;;13.20;4.60;;;19.10;99.90;;;;;;5081832;28;20447;-74
2022/08/18 05:57:31;;;;;;;13.32;5.15;;;19.40;99.90;;;;;;5084720;28;20142;-74
2022/08/18 05:59:57;;;;;;;12.20;4.22;;;19.50;99.90;;;;;;5068577;28;20139;-74
2022/08/18 06:02:34;;;;;;;20.17;7.30;;;19.60;99.90;;;;;;5071747;28;20047;-76
2022/08/18 06:05:10;;;;;;;22.05;7.18;;;19.70;99.90;;;;;;5086391;28;20040;-74
2022/08/18 06:07:56;;;;;;;14.15;5.18;;;19.70;99.90;;;;;;5068101;27;20112;-75
2022/08/18 06:10:22;;;;;;;16.42;6.00;;;19.80;99.90;;;;;;5060323;28;20089;-75
2022/08/18 06:12:59;;;;;;;14.85;5.57;;;19.80;99.90;;;;;;5075861;28;20153;-75
2022/08/18 06:15:51;;;;;;;15.90;6.03;;;19.70;99.90;;;;;;5062840;28;20058;-77
2022/08/18 06:18:29;;;;;;;12.95;5.10;;;19.60;99.90;;;;;;5060711;28;20078;-74
2022/08/18 06:21:10;;;;;;;10.50;4.03;;;19.50;99.90;;;;;;5072308;28;20056;-75
2022/08/18 06:24:04;;;;;;;10.27;4.80;;;19.50;99.90;;;;;;5077050;28;20465;-74
2022/08/18 06:27:09;;;;;;;13.95;4.63;;;19.40;99.90;;;;;;5084154;28;20059;-75
2022/08/18 06:29:52;;;;;;;19.92;4.70;;;19.40;99.90;;;;;;5087453;28;20084;-76
2022/08/18 06:32:33;;;;;;;13.07;4.35;;;19.40;99.90;;;;;;5083589;28;20460;-76
2022/08/18 06:35:05;;;;;;;16.95;4.82;;;19.40;99.90;;;;;;5091935;28;20052;-73
2022/08/18 06:40:47;;;;;;;12.05;3.72;;;19.30;99.90;;;;;;5079989;28;20138;-77
2022/08/18 06:43:15;;;;;;;14.80;3.78;;;19.30;99.90;;;;;;5063871;28;20506;-78
2022/08/18 06:45:44;;;;;;;14.02;3.85;;;19.40;99.90;;;;;;5064343;28;20055;-76
2022/08/18 06:48:28;;;;;;;17.02;4.03;;;19.40;99.90;;;;;;5079481;28;20075;-80
2022/08/18 06:51:00;;;;;;;16.13;4.10;;;19.40;99.90;;;;;;5062350;28;20043;-82
2022/08/18 06:53:49;;;;;;;18.38;3.42;;;19.50;99.90;;;;;;5081727;28;20051;-80
2022/08/18 06:56:25;;;;;;;18.98;3.90;;;19.50;99.90;;;;;;5084079;28;20048;-82
2022/08/18 06:58:54;;;;;;;19.08;3.20;;;19.40;99.90;;;;;;5066785;28;20040;-77
2022/08/18 07:01:23;;;;;;;15.35;3.55;;;19.30;99.90;;;;;;5079468;28;20043;-76
2022/08/18 07:03:53;;;;;;;16.33;3.00;;;19.30;99.90;;;;;;5063248;28;20506;-76
2022/08/18 07:06:22;;;;;;;20.83;3.55;;;19.30;99.90;;;;;;5077661;28;20056;-75
2022/08/18 07:08:53;;;;;;;10.25;2.85;;;19.30;99.90;;;;;;5070375;28;20039;-75
2022/08/18 07:11:26;;;;;;;18.33;3.15;;;19.20;99.90;;;;;;5080487;28;20077;-74
2022/08/18 07:13:55;;;;;;;19.63;3.25;;;19.00;99.90;;;;;;5081541;28;20376;-74
2022/08/18 07:16:32;;;;;;;15.35;3.03;;;19.00;99.90;;;;;;5083925;28;20059;-73
2022/08/18 07:19:07;;;;;;;15.10;3.40;;;19.00;99.90;;;;;;5084108;28;20039;-74
2022/08/18 07:21:36;;;;;;;25.13;4.22;;;19.00;99.90;;;;;;5081045;28;20035;-75
2022/08/18 07:24:31;;;;;;;18.35;3.60;;;19.00;99.90;;;;;;5064347;28;20047;-75
2022/08/18 07:27:03;;;;;;;8.82;2.72;;;19.00;99.90;;;;;;5072429;28;20051;-73
2022/08/18 07:29:32;;;;;;;15.07;3.25;;;19.00;99.90;;;;;;5079184;28;20040;-74
2022/08/18 07:32:04;;;;;;;13.00;2.70;;;19.00;99.90;;;;;;5082114;28;20132;-74
2022/08/18 07:34:39;;;;;;;17.85;4.03;;;19.00;99.90;;;;;;5076670;28;20837;-74
2022/08/18 07:37:13;;;;;;;7.63;2.70;;;19.00;99.90;;;;;;5080475;28;20052;-74
2022/08/18 07:40:01;;;;;;;9.50;2.33;;;19.10;99.90;;;;;;5086225;28;20056;-75
2022/08/18 07:42:40;;;;;;;12.48;3.03;;;19.10;99.90;;;;;;5087072;28;20066;-75
2022/08/18 07:45:25;;;;;;;8.38;2.20;;;19.10;99.90;;;;;;5072732;28;20071;-76
2022/08/18 07:47:57;;;;;;;6.22;2.13;;;19.30;99.90;;;;;;5090908;28;20054;-74
2022/08/18 07:50:23;;;;;;;7.47;2.20;;;19.40;99.90;;;;;;5085921;28;20152;-75
2022/08/18 07:53:04;;;;;;;8.02;2.40;;;19.40;99.90;;;;;;5096103;28;20071;-74
2022/08/18 07:55:34;;;;;;;7.20;2.30;;;19.50;99.90;;;;;;5063837;28;20089;-73
2022/08/18 07:58:30;;;;;;;7.50;2.40;;;19.50;99.90;;;;;;5067133;28;20043;-75
2022/08/18 08:01:26;;;;;;;8.30;2.15;;;19.60;99.90;;;;;;5086966;28;20471;-75
2022/08/18 08:03:55;;;;;;;9.10;2.13;;;19.70;99.90;;;;;;5087537;28;20112;-76
2022/08/18 08:06:41;;;;;;;5.97;1.98;;;19.80;99.90;;;;;;5072007;28;20059;-77
2022/08/18 08:09:28;;;;;;;4.63;1.90;;;20.00;99.90;;;;;;5068860;28;20070;-76
2022/08/18 08:12:02;;;;;;;10.93;2.00;;;19.90;99.90;;;;;;5069551;28;20043;-77
2022/08/18 08:14:42;;;;;;;8.18;2.08;;;19.90;99.90;;;;;;5071447;28;20097;-77
2022/08/18 08:17:36;;;;;;;8.20;2.40;;;19.90;99.90;;;;;;5092773;28;20100;-77
2022/08/18 08:20:12;;;;;;;11.18;2.40;;;20.00;99.90;;;;;;5088981;28;20466;-76
2022/08/18 08:22:51;;;;;;;5.55;2.08;;;20.20;99.90;;;;;;5072992;28;20051;-77
2022/08/18 08:25:19;;;;;;;4.90;1.58;;;20.10;99.90;;;;;;5089163;28;20051;-77
2022/08/18 08:28:16;;;;;;;6.68;1.85;;;20.10;99.90;;;;;;5074843;28;20059;-76
2022/08/18 08:31:03;;;;;;;6.13;1.60;;;20.10;99.90;;;;;;5088486;28;20052;-76
2022/08/18 08:33:50;;;;;;;5.00;1.75;;;20.10;99.90;;;;;;5065339;28;20050;-77
2022/08/18 08:36:39;;;;;;;3.90;1.50;;;20.20;99.90;;;;;;5085358;28;20047;-76
2022/08/18 08:39:16;;;;;;;8.88;1.80;;;20.30;99.90;;;;;;5066227;28;20046;-77
2022/08/18 08:41:59;;;;;;;7.43;1.55;;;20.50;99.90;;;;;;5076206;28;20059;-78
2022/08/18 08:45:02;;;;;;;9.18;1.83;;;20.60;99.90;;;;;;5090306;28;20059;-78
2022/08/18 08:47:43;;;;;;;3.85;1.33;;;20.50;99.90;;;;;;5088339;28;20475;-75
2022/08/18 08:50:19;;;;;;;5.60;1.80;;;20.50;99.90;;;;;;5069623;28;20455;-76
2022/08/18 08:53:06;;;;;;;5.68;1.67;;;20.40;99.90;;;;;;5092113;28;20577;-77
2022/08/18 08:55:35;;;;;;;6.15;1.45;;;20.40;99.90;;;;;;5091095;28;20130;-76
2022/08/18 08:58:15;;;;;;;4.88;1.60;;;20.40;99.90;;;;;;5077568;28;20158;-74
2022/08/18 09:00:42;;;;;;;5.38;1.73;;;20.30;99.90;;;;;;5089577;27;20489;-74
2022/08/18 09:03:17;;;;;;;4.53;1.85;;;20.30;99.90;;;;;;5077892;28;20036;-75
2022/08/18 09:05:55;;;;;;;8.27;2.05;;;20.10;99.90;;;;;;5092162;28;20087;-74
2022/08/18 09:08:47;;;;;;;5.13;1.23;;;20.20;99.90;;;;;;5094296;28;20128;-75
2022/08/18 09:11:47;;;;;;;4.70;1.63;;;20.10;99.90;;;;;;5094865;28;20509;-73
2022/08/18 09:14:56;;;;;;;6.13;1.67;;;19.90;99.90;;;;;;5088765;28;20176;-74
2022/08/18 09:17:32;;;;;;;5.10;1.63;;;19.90;99.90;;;;;;5084088;27;20482;-74
2022/08/18 09:20:39;;;;;;;5.75;1.60;;;20.00;99.90;;;;;;5069805;28;20047;-75
2022/08/18 09:23:16;;;;;;;6.90;1.83;;;20.10;99.90;;;;;;5068646;28;20071;-75
2022/08/18 09:25:44;;;;;;;6.78;2.00;;;20.00;99.90;;;;;;5087279;28;20110;-75
2022/08/18 09:28:27;;;;;;;8.05;1.83;;;20.10;99.90;;;;;;5065609;28;21860;-74
2022/08/18 09:31:05;;;;;;;5.95;2.15;;;20.20;99.90;;;;;;5084116;28;20043;-75
2022/08/18 09:33:44;;;;;;;4.97;1.80;;;20.20;99.90;;;;;;5083090;28;20052;-76
2022/08/18 09:36:24;;;;;;;5.93;1.92;;;20.30;99.90;;;;;;5085080;28;20048;-75
2022/08/18 09:42:25;;;;;;;5.25;1.40;;;20.60;99.90;;;;;;5087681;28;20046;-74
2022/08/18 09:44:51;;;;;;;4.72;1.60;;;20.60;99.90;;;;;;5087202;28;20052;-74
2022/08/18 09:47:19;;;;;;;4.18;1.67;;;20.70;99.90;;;;;;5083390;28;20523;-75
2022/08/18 09:49:52;;;;;;;5.03;1.60;;;20.80;99.90;;;;;;5074982;28;20377;-74
2022/08/18 09:52:21;;;;;;;6.78;1.70;;;21.00;99.90;;;;;;5096164;28;20051;-74
2022/08/18 09:54:57;;;;;;;4.45;1.40;;;21.10;99.90;;;;;;5076909;28;20086;-75
2022/08/18 09:57:34;;;;;;;4.47;1.30;;;21.40;99.90;;;;;;5099795;27;20044;-73
2022/08/18 10:00:02;;;;;;;4.15;1.92;;;21.70;99.90;;;;;;5064700;28;20058;-76
2022/08/18 10:02:28;;;;;;;4.32;1.38;;;21.40;99.90;;;;;;5081497;28;20607;-75
2022/08/18 10:05:16;;;;;;;3.58;1.60;;;21.30;99.90;;;;;;5094361;28;20055;-74
2022/08/18 10:07:54;;;;;;;7.45;1.50;;;21.10;99.90;;;;;;5079538;28;20211;-74
2022/08/18 10:10:40;;;;;;;2.95;1.20;;;21.20;99.90;;;;;;5082048;28;20701;-74
2022/08/18 10:13:37;;;;;;;4.32;1.30;;;21.10;99.90;;;;;;5061497;28;20089;-76
2022/08/18 10:16:33;;;;;;;5.25;1.60;;;21.20;99.90;;;;;;5081537;28;20498;-75
2022/08/18 10:19:28;;;;;;;3.65;1.60;;;21.20;99.90;;;;;;5078268;28;20142;-75
2022/08/18 10:21:54;;;;;;;5.95;1.60;;;21.30;99.90;;;;;;5065130;28;20170;-75
2022/08/18 10:24:27;;;;;;;7.28;1.50;;;21.10;99.90;;;;;;5079607;28;20040;-75
2022/08/18 10:26:55;;;;;;;2.40;1.35;;;21.10;99.90;;;;;;5065720;28;20039;-75
2022/08/18 10:29:47;;;;;;;3.10;1.50;;;21.00;99.90;;;;;;5072922;28;20059;-75
2022/08/18 10:32:13;;;;;;;4.13;1.42;;;21.00;99.90;;;;;;5064228;28;20062;-75
2022/08/18 10:34:41;;;;;;;5.55;1.70;;;20.90;99.90;;;;;;5087783;27;20043;-76
2022/08/18 10:37:11;;;;;;;4.68;1.48;;;20.80;99.90;;;;;;5081509;28;20036;-76
2022/08/18 10:39:37;;;;;;;5.13;1.52;;;20.80;99.90;;;;;;5067482;28;20129;-76
2022/08/18 10:42:27;;;;;;;3.38;1.30;;;20.80;99.90;;;;;;5059511;28;20047;-75
2022/08/18 10:45:22;;;;;;;6.32;1.70;;;20.90;99.90;;;;;;5044651;28;20048;-74
2022/08/18 10:48:19;;;;;;;6.60;1.67;;;21.00;99.90;;;;;;5055800;28;20052;-75
2022/08/18 10:50:51;;;;;;;4.47;1.67;;;21.00;99.90;;;;;;5084475;28;20035;-75
2022/08/18 10:53:16;;;;;;;6.05;1.83;;;20.90;99.90;;;;;;5063193;28;20430;-76
2022/08/18 10:55:50;;;;;;;3.88;1.60;;;20.80;99.90;;;;;;5064067;28;20054;-75
2022/08/18 10:58:23;;;;;;;6.15;1.40;;;20.70;99.90;;;;;;5076419;28;20051;-75
2022/08/18 11:01:36;;;;;;;4.72;1.58;;;20.80;99.90;;;;;;5076168;28;20264;-75
2022/08/18 11:04:10;;;;;;;4.57;1.40;;;21.00;99.90;;;;;;5016655;28;20052;-75
2022/08/18 11:06:42;;;;;;;2.35;1.35;;;21.10;99.90;;;;;;4998740;28;20057;-74
2022/08/18 11:09:09;;;;;;;4.40;1.33;;;21.00;99.90;;;;;;4995896;28;20164;-74
2022/08/18 11:11:41;;;;;;;3.25;1.38;;;20.90;99.90;;;;;;5000668;28;20058;-74
2022/08/18 11:14:14;;;;;;;3.03;1.40;;;21.00;99.90;;;;;;4998169;28;20441;-76
2022/08/18 11:17:07;;;;;;;4.57;1.60;;;21.00;99.90;;;;;;5005408;28;20054;-75
2022/08/18 11:19:38;;;;;;;4.50;1.70;;;21.00;99.90;;;;;;4926371;28;20043;-75
2022/08/18 11:22:05;;;;;;;4.20;1.50;;;21.20;99.90;;;;;;4931416;28;20163;-76
2022/08/18 11:24:34;;;;;;;4.25;1.60;;;21.30;99.90;;;;;;4917263;29;20061;-77
2022/08/18 11:27:00;;;;;;;7.38;1.55;;;21.50;99.90;;;;;;4915307;28;20054;-76
2022/08/18 11:29:38;;;;;;;4.65;1.50;;;21.80;99.90;;;;;;4945333;28;20138;-76
2022/08/18 11:32:07;;;;;;;4.57;1.58;;;22.00;99.90;;;;;;4914921;28;20143;-76
2022/08/18 11:34:44;;;;;;;4.88;1.40;;;22.20;99.90;;;;;;4918669;29;20190;-77
2022/08/18 11:37:23;;;;;;;3.40;1.88;;;22.20;99.90;;;;;;4931174;29;20058;-74
2022/08/18 11:39:51;;;;;;;6.43;1.88;;;22.40;99.90;;;;;;4972050;28;20185;-74
2022/08/18 11:42:24;;;;;;;7.15;2.10;;;22.50;99.90;;;;;;4991544;28;21359;-73
2022/08/18 11:44:52;;;;;;;6.03;1.70;;;22.30;99.90;;;;;;4987457;28;20057;-73
2022/08/18 11:47:20;;;;;;;6.68;1.98;;;22.30;99.90;;;;;;4994749;28;20462;-73
2022/08/18 11:49:56;;;;;;;9.18;1.48;;;22.40;99.90;;;;;;4992111;28;20050;-74
2022/08/18 11:52:28;;;;;;;5.78;1.73;;;22.40;99.90;;;;;;4990916;28;20172;-73
2022/08/18 11:55:04;;;;;;;6.57;1.30;;;22.40;99.90;;;;;;5003431;28;20034;-74
2022/08/18 11:57:39;;;;;;;4.53;1.50;;;22.60;99.90;;;;;;5052525;28;20532;-72
2022/08/18 12:00:36;;;;;;;9.00;1.77;;;23.00;99.90;;;;;;5061305;28;20067;-73
2022/08/18 12:03:30;;;;;;;3.13;1.45;;;23.20;99.90;;;;;;5050582;28;20085;-74
2022/08/18 12:06:17;;;;;;;3.55;1.40;;;23.30;99.90;;;;;;5064590;28;20091;-74
2022/08/18 12:08:59;;;;;;;4.20;1.70;;;23.10;99.90;;;;;;5068605;28;20063;-74
2022/08/18 12:11:29;;;;;;;2.88;1.48;;;23.50;99.90;;;;;;5063043;28;20414;-74
2022/08/18 12:14:07;;;;;;;4.63;1.40;;;23.70;99.90;;;;;;5046220;28;20116;-73
2022/08/18 12:16:38;;;;;;;3.28;1.25;;;23.90;99.90;;;;;;5054325;28;20102;-74
2022/08/18 12:19:09;;;;;;;1.90;1.10;;;24.10;99.90;;;;;;5063954;28;20056;-74
2022/08/18 12:21:49;;;;;;;3.80;1.23;;;24.10;99.90;;;;;;5066807;28;20048;-74
2022/08/18 12:24:22;;;;;;;2.92;1.30;;;23.80;99.90;;;;;;5086558;28;20071;-74
2022/08/18 12:26:49;;;;;;;4.40;1.30;;;23.60;99.90;;;;;;5077019;28;20039;-74
2022/08/18 12:29:17;;;;;;;2.38;1.40;;;23.40;99.90;;;;;;5063005;28;20057;-74
2022/08/18 12:31:46;;;;;;;5.13;1.50;;;23.60;99.90;;;;;;5084958;28;20135;-74
2022/08/18 12:34:12;;;;;;;4.63;1.65;;;23.60;99.90;;;;;;5082929;28;20152;-74
2022/08/18 12:36:39;;;;;;;3.20;1.25;;;23.80;99.90;;;;;;5081963;28;20111;-74
2022/08/18 12:39:05;;;;;;;4.40;1.50;;;24.00;99.90;;;;;;5066076;28;20372;-75
2022/08/18 12:41:31;;;;;;;4.75;1.40;;;23.90;99.90;;;;;;5084005;28;20062;-75
2022/08/18 12:43:57;;;;;;;3.20;1.35;;;23.80;99.90;;;;;;5083837;28;20602;-75
2022/08/18 12:46:23;;;;;;;2.40;1.40;;;24.10;99.90;;;;;;5082969;28;20048;-75
2022/08/18 12:48:49;;;;;;;4.43;1.40;;;24.20;99.90;;;;;;5077714;28;20047;-73
2022/08/18 12:51:15;;;;;;;2.80;1.33;;;24.40;99.90;;;;;;5084649;28;20467;-73
2022/08/18 12:53:41;;;;;;;1.88;1.13;;;24.80;99.90;;;;;;5081658;28;20071;-74
2022/08/18 12:56:21;;;;;;;2.60;1.17;;;24.70;99.90;;;;;;5085536;28;20052;-73
2022/08/18 12:58:48;;;;;;;3.00;1.30;;;24.40;99.90;;;;;;5081864;28;20058;-75
2022/08/18 13:01:15;;;;;;;4.72;1.13;;;23.90;99.90;;;;;;5062771;28;20044;-75
2022/08/18 13:03:43;;;;;;;4.03;1.40;;;23.90;99.90;;;;;;5081368;28;20043;-76
2022/08/18 13:06:10;;;;;;;4.88;1.30;;;24.10;99.90;;;;;;5062236;28;20115;-75
2022/08/18 13:08:36;;;;;;;8.70;1.80;;;24.20;99.90;;;;;;5069407;28;20123;-74
2022/08/18 13:11:02;;;;;;;3.28;1.30;;;24.60;99.90;;;;;;5070166;28;20063;-74
2022/08/18 13:13:28;;;;;;;4.38;1.23;;;24.70;99.90;;;;;;5090071;28;20497;-76
2022/08/18 13:15:54;;;;;;;4.05;1.30;;;24.50;99.90;;;;;;5065805;28;20127;-77
2022/08/18 13:18:19;;;;;;;4.30;1.27;;;24.20;99.90;;;;;;5066077;28;20059;-75
2022/08/18 13:20:45;;;;;;;4.65;1.30;;;24.10;99.90;;;;;;5082437;28;20048;-75
2022/08/18 13:23:11;;;;;;;3.88;1.42;;;23.70;99.90;;;;;;5064055;28;20039;-74
2022/08/18 13:25:37;;;;;;;5.65;1.33;;;23.70;99.90;;;;;;5074442;28;20047;-74